Time;durP1;ratioP1;P1;durP2;ratioP2;P2;SDS_P1;SDS_P2;PMS_P1;PMS_P2;Temp;Humidity;BMP_temperature;BMP_pressure;BME280_temperature;BME280_humidity;BME280_pressure;Samples;Min_cycle;Max_cycle;Signal;HPM_P1;HPM_P2
2020/12/08 00:01:35;;;;;;;15.13;12.60;;;4.10;99.90;;;;;;5050898;28;20220;-40
2020/12/08 00:04:03;;;;;;;12.97;11.67;;;4.10;99.90;;;;;;5050913;28;20467;-40
2020/12/08 00:06:30;;;;;;;13.83;12.50;;;4.10;99.90;;;;;;5051415;28;20564;-39
2020/12/08 00:08:56;;;;;;;13.23;11.63;;;4.10;99.90;;;;;;5050689;28;20742;-40
2020/12/08 00:11:23;;;;;;;12.23;11.03;;;4.20;99.90;;;;;;5050888;28;20234;-40
2020/12/08 00:13:50;;;;;;;13.33;11.43;;;4.20;99.90;;;;;;5051019;28;20203;-39
2020/12/08 00:16:17;;;;;;;12.05;10.85;;;4.20;99.90;;;;;;5050838;28;20253;-39
2020/12/08 00:18:43;;;;;;;12.98;11.73;;;4.20;99.90;;;;;;5050730;28;20226;-40
2020/12/08 00:21:10;;;;;;;13.33;11.27;;;4.20;99.90;;;;;;5050569;28;20587;-39
2020/12/08 00:23:37;;;;;;;14.48;12.15;;;4.30;99.90;;;;;;5050397;28;20203;-40
2020/12/08 00:26:03;;;;;;;14.82;12.93;;;4.40;99.90;;;;;;5050600;28;20195;-40
2020/12/08 00:28:32;;;;;;;14.07;12.57;;;4.40;99.90;;;;;;5050170;28;20211;-40
2020/12/08 00:30:59;;;;;;;14.00;12.50;;;4.40;99.90;;;;;;5050353;28;20709;-40
2020/12/08 00:33:26;;;;;;;14.07;12.33;;;4.40;99.90;;;;;;5050775;28;20550;-40
2020/12/08 00:35:53;;;;;;;14.30;12.80;;;4.30;99.90;;;;;;5050601;28;20252;-39
2020/12/08 00:38:20;;;;;;;12.70;11.43;;;4.30;99.90;;;;;;5050230;28;20272;-40
2020/12/08 00:40:46;;;;;;;13.27;11.60;;;4.30;99.90;;;;;;5050119;28;20215;-39
2020/12/08 00:43:13;;;;;;;14.70;12.83;;;4.30;99.90;;;;;;5049887;28;20195;-40
2020/12/08 00:45:39;;;;;;;12.83;11.53;;;4.30;99.90;;;;;;5052351;28;20227;-40
2020/12/08 00:48:07;;;;;;;12.80;11.50;;;4.30;99.90;;;;;;5037161;28;20263;-40
2020/12/08 00:50:34;;;;;;;13.93;12.43;;;4.30;99.90;;;;;;5038671;28;20278;-39
2020/12/08 00:53:00;;;;;;;12.10;10.87;;;4.30;99.90;;;;;;5054501;28;20222;-39
2020/12/08 00:55:27;;;;;;;13.60;12.20;;;4.30;99.90;;;;;;5036359;28;20257;-40
2020/12/08 00:57:55;;;;;;;14.10;12.70;;;4.10;99.90;;;;;;5035507;28;20195;-40
2020/12/08 01:00:23;;;;;;;13.67;12.27;;;4.30;99.90;;;;;;5036725;28;20693;-40
2020/12/08 01:02:49;;;;;;;15.23;11.20;;;4.30;99.90;;;;;;5055935;28;20286;-40
2020/12/08 01:05:18;;;;;;;16.50;12.80;;;4.30;99.90;;;;;;5037348;28;20257;-41
2020/12/08 01:07:46;;;;;;;14.13;12.63;;;4.30;99.90;;;;;;5035955;28;20200;-40
2020/12/08 01:10:21;;;;;;;12.60;10.93;;;4.30;99.90;;;;;;5035662;28;20249;-41
2020/12/08 01:12:47;;;;;;;14.37;12.13;;;4.30;99.90;;;;;;5053682;28;20209;-40
2020/12/08 01:15:15;;;;;;;13.30;11.90;;;4.30;99.90;;;;;;5044367;28;20666;-41
2020/12/08 01:17:43;;;;;;;15.57;12.87;;;4.30;99.90;;;;;;5052159;28;20606;-40
2020/12/08 01:20:11;;;;;;;15.13;13.47;;;4.30;99.90;;;;;;5053515;28;20210;-40
2020/12/08 01:22:40;;;;;;;12.60;11.30;;;4.40;99.90;;;;;;5052266;28;20198;-47
2020/12/08 01:25:07;;;;;;;14.93;12.57;;;4.40;99.90;;;;;;5051882;28;20321;-40
2020/12/08 01:27:37;;;;;;;14.13;12.73;;;4.40;99.90;;;;;;5051716;28;20282;-41
2020/12/08 01:30:06;;;;;;;12.03;10.77;;;4.40;99.90;;;;;;5054978;28;20264;-39
2020/12/08 01:32:37;;;;;;;13.43;12.00;;;4.40;99.90;;;;;;5052125;28;20223;-40
2020/12/08 01:35:03;;;;;;;13.73;12.33;;;4.40;99.90;;;;;;5046642;28;20234;-40
2020/12/08 01:37:32;;;;;;;13.80;12.40;;;4.40;99.90;;;;;;5034391;28;20199;-40
2020/12/08 01:40:00;;;;;;;14.43;12.93;;;4.40;99.90;;;;;;5035083;28;20373;-40
2020/12/08 01:42:28;;;;;;;13.23;11.93;;;4.30;99.90;;;;;;5033167;28;20231;-39
2020/12/08 01:44:56;;;;;;;13.15;10.68;;;4.30;99.90;;;;;;5033880;28;20223;-40
2020/12/08 01:47:24;;;;;;;13.63;12.23;;;4.40;99.90;;;;;;5034510;28;20602;-41
2020/12/08 01:49:51;;;;;;;13.50;12.20;;;4.30;99.90;;;;;;5052310;28;20598;-40
2020/12/08 01:52:18;;;;;;;12.52;11.23;;;4.30;99.90;;;;;;5052789;28;20234;-39
2020/12/08 01:54:50;;;;;;;13.83;12.40;;;4.30;99.90;;;;;;5035090;28;20202;-40
2020/12/08 01:57:19;;;;;;;13.33;11.93;;;4.30;99.90;;;;;;5032631;28;20200;-40
2020/12/08 01:59:47;;;;;;;13.37;10.90;;;4.30;99.90;;;;;;5034413;28;20210;-40
2020/12/08 02:02:21;;;;;;;13.20;11.93;;;4.30;99.90;;;;;;5032728;28;20681;-38
2020/12/08 02:04:48;;;;;;;13.13;11.87;;;4.40;99.90;;;;;;5035607;28;20238;-39
2020/12/08 02:07:15;;;;;;;13.80;11.90;;;4.30;99.90;;;;;;5052580;28;20280;-38
2020/12/08 02:09:43;;;;;;;14.27;12.77;;;4.30;99.90;;;;;;5043688;28;20238;-39
2020/12/08 02:12:10;;;;;;;12.53;11.23;;;4.30;99.90;;;;;;5042941;28;20272;-39
2020/12/08 02:14:41;;;;;;;13.40;12.10;;;4.30;99.90;;;;;;5043246;28;20446;-38
2020/12/08 02:17:08;;;;;;;13.60;12.20;;;4.40;99.90;;;;;;5052226;28;20722;-39
2020/12/08 02:19:35;;;;;;;12.70;11.47;;;4.40;99.90;;;;;;5044863;28;20203;-38
2020/12/08 02:22:05;;;;;;;13.30;11.87;;;4.40;99.90;;;;;;5043494;28;20215;-38
2020/12/08 02:24:33;;;;;;;12.67;11.57;;;4.40;99.90;;;;;;5042523;28;20211;-38
2020/12/08 02:26:59;;;;;;;13.03;11.17;;;4.40;99.90;;;;;;5042588;28;20195;-38
2020/12/08 02:29:26;;;;;;;13.60;12.17;;;4.40;99.90;;;;;;5051672;28;20207;-38
2020/12/08 02:31:52;;;;;;;14.60;12.37;;;4.40;99.90;;;;;;5042445;28;20211;-38
2020/12/08 02:34:21;;;;;;;13.20;12.00;;;4.40;99.90;;;;;;5043281;28;20241;-38
2020/12/08 02:36:56;;;;;;;14.07;12.17;;;4.30;99.90;;;;;;5042682;28;20214;-39
2020/12/08 02:39:24;;;;;;;13.70;12.33;;;4.30;99.90;;;;;;5041336;28;20194;-39
2020/12/08 02:41:51;;;;;;;13.87;12.53;;;4.30;99.90;;;;;;5049259;28;20253;-39
2020/12/08 02:44:18;;;;;;;14.07;12.60;;;4.50;99.90;;;;;;5042420;28;20711;-39
2020/12/08 02:46:49;;;;;;;15.17;13.20;;;4.40;99.90;;;;;;5040206;28;20199;-39
2020/12/08 02:49:17;;;;;;;14.90;13.40;;;4.40;99.90;;;;;;5042133;28;20283;-39
2020/12/08 02:51:45;;;;;;;13.83;12.23;;;4.40;99.90;;;;;;5050798;28;20251;-38
2020/12/08 02:54:12;;;;;;;14.40;12.60;;;4.40;99.90;;;;;;5042157;28;20184;-38
2020/12/08 02:56:39;;;;;;;13.77;12.33;;;4.40;99.90;;;;;;5024599;28;20210;-38
2020/12/08 02:59:16;;;;;;;13.70;12.30;;;4.50;99.90;;;;;;5041926;28;20211;-38
2020/12/08 03:01:43;;;;;;;14.83;12.90;;;4.50;99.90;;;;;;5033494;28;20599;-39
2020/12/08 03:04:10;;;;;;;14.95;13.23;;;4.30;99.90;;;;;;5033773;28;20233;-39
2020/12/08 03:06:41;;;;;;;13.93;12.52;;;4.40;99.90;;;;;;5033849;28;20253;-39
2020/12/08 03:09:07;;;;;;;14.70;13.20;;;4.30;99.90;;;;;;5050661;28;20218;-38
2020/12/08 03:11:34;;;;;;;15.93;14.23;;;4.40;99.90;;;;;;5050902;28;20243;-39
2020/12/08 03:14:12;;;;;;;14.13;12.73;;;4.40;99.90;;;;;;5033479;28;20239;-38
2020/12/08 03:16:41;;;;;;;16.67;13.13;;;4.40;99.90;;;;;;5033360;28;20628;-38
2020/12/08 03:19:07;;;;;;;18.10;15.73;;;4.40;99.90;;;;;;5033317;28;20204;-39
2020/12/08 03:21:35;;;;;;;17.77;13.90;;;4.40;99.90;;;;;;5035957;28;20227;-39
2020/12/08 03:24:07;;;;;;;15.10;12.23;;;4.40;99.90;;;;;;5032996;28;20199;-38
2020/12/08 03:26:34;;;;;;;15.17;13.67;;;4.40;99.90;;;;;;5033391;28;20202;-38
2020/12/08 03:29:02;;;;;;;16.37;14.40;;;4.40;99.90;;;;;;5032804;28;20290;-39
2020/12/08 03:31:30;;;;;;;16.37;13.90;;;4.40;99.90;;;;;;5033268;28;20290;-38
2020/12/08 03:34:00;;;;;;;15.23;13.63;;;4.40;99.90;;;;;;5033133;28;20283;-39
2020/12/08 03:36:27;;;;;;;16.13;14.43;;;4.40;99.90;;;;;;5033119;28;20215;-38
2020/12/08 03:38:54;;;;;;;17.33;14.17;;;4.50;99.90;;;;;;5033107;28;20230;-38
2020/12/08 03:41:25;;;;;;;17.00;14.07;;;4.40;99.90;;;;;;5033342;28;20227;-37
2020/12/08 03:43:58;;;;;;;15.03;13.50;;;4.30;99.90;;;;;;5016322;28;20611;-38
2020/12/08 03:46:26;;;;;;;16.53;14.17;;;4.40;99.90;;;;;;5032845;28;20235;-39
2020/12/08 03:48:54;;;;;;;16.47;14.30;;;4.30;99.90;;;;;;5034361;28;20209;-39
2020/12/08 03:51:22;;;;;;;15.83;14.23;;;4.30;99.90;;;;;;5033372;28;20223;-39
2020/12/08 03:53:50;;;;;;;15.57;13.93;;;4.40;99.90;;;;;;5032812;28;20248;-39
2020/12/08 03:56:20;;;;;;;14.67;13.17;;;4.50;99.90;;;;;;5032748;28;20245;-39
2020/12/08 03:58:53;;;;;;;16.00;14.37;;;4.50;99.90;;;;;;5032350;28;20219;-39
2020/12/08 04:01:22;;;;;;;15.80;14.23;;;4.40;99.90;;;;;;5032605;28;20226;-39
2020/12/08 04:03:51;;;;;;;16.43;14.80;;;4.40;99.90;;;;;;5032781;28;20294;-38
2020/12/08 04:06:19;;;;;;;16.80;15.07;;;4.30;99.90;;;;;;5032714;28;20250;-39
2020/12/08 04:08:47;;;;;;;18.07;14.43;;;4.30;99.90;;;;;;5032174;28;20198;-38
2020/12/08 04:11:16;;;;;;;14.07;12.53;;;4.30;99.90;;;;;;5032576;28;20254;-38
2020/12/08 04:13:45;;;;;;;14.87;13.37;;;4.30;99.90;;;;;;5032642;28;20215;-39
2020/12/08 04:16:13;;;;;;;15.63;13.13;;;4.10;99.90;;;;;;5032285;28;20202;-38
2020/12/08 04:18:40;;;;;;;14.95;13.35;;;4.20;99.90;;;;;;5032754;28;20203;-39
2020/12/08 04:21:07;;;;;;;14.80;13.30;;;4.30;99.90;;;;;;5037217;28;20215;-38
2020/12/08 04:23:35;;;;;;;14.03;12.53;;;4.20;99.90;;;;;;5038198;28;20231;-38
2020/12/08 04:26:02;;;;;;;16.30;13.80;;;4.20;99.90;;;;;;5038121;28;20321;-38
2020/12/08 04:28:32;;;;;;;14.27;12.97;;;4.20;99.90;;;;;;5036482;28;20203;-39
2020/12/08 04:30:59;;;;;;;13.93;12.63;;;4.20;99.90;;;;;;5036522;28;20226;-39
2020/12/08 04:33:25;;;;;;;14.47;13.07;;;4.20;99.90;;;;;;5054458;28;20272;-39
2020/12/08 04:35:52;;;;;;;14.60;13.10;;;4.20;99.90;;;;;;5054130;28;20294;-39
2020/12/08 04:38:18;;;;;;;15.83;13.13;;;4.20;99.90;;;;;;5054382;28;20268;-39
2020/12/08 04:40:48;;;;;;;15.07;13.03;;;4.20;99.90;;;;;;5053471;28;20231;-38
2020/12/08 04:43:15;;;;;;;16.23;13.87;;;4.20;99.90;;;;;;5054589;28;20379;-38
2020/12/08 04:45:42;;;;;;;17.17;15.33;;;4.20;99.90;;;;;;5054341;28;20218;-39
2020/12/08 04:48:10;;;;;;;15.30;13.70;;;4.30;99.90;;;;;;5035797;28;20222;-39
2020/12/08 04:50:37;;;;;;;15.43;13.83;;;4.30;99.90;;;;;;5053954;28;20211;-38
2020/12/08 04:53:03;;;;;;;17.43;13.90;;;4.30;99.90;;;;;;5054057;28;20199;-39
2020/12/08 04:55:30;;;;;;;15.27;13.63;;;4.20;99.90;;;;;;5037431;28;20198;-38
2020/12/08 04:57:58;;;;;;;14.70;13.30;;;4.30;99.90;;;;;;5055106;28;20310;-38
2020/12/08 05:00:24;;;;;;;16.50;14.43;;;4.30;99.90;;;;;;5055555;28;20211;-38
2020/12/08 05:02:52;;;;;;;15.87;14.23;;;4.30;99.90;;;;;;5073733;22;20301;-38
2020/12/08 05:05:20;;;;;;;18.20;15.50;;;4.30;99.90;;;;;;5077430;28;20210;-39
2020/12/08 05:07:47;;;;;;;15.53;13.77;;;4.30;99.90;;;;;;5090460;28;20202;-39
2020/12/08 05:10:14;;;;;;;16.90;14.13;;;4.30;99.90;;;;;;5093919;28;20775;-40
2020/12/08 05:12:41;;;;;;;16.57;12.17;;;4.30;99.90;;;;;;5094357;28;20241;-38
2020/12/08 05:15:16;;;;;;;18.40;14.17;;;4.30;99.90;;;;;;5094169;28;20656;-38
2020/12/08 05:17:43;;;;;;;17.63;15.73;;;4.20;99.90;;;;;;5093819;28;20278;-39
2020/12/08 05:20:12;;;;;;;16.37;14.23;;;4.20;99.90;;;;;;5093990;28;20220;-39
2020/12/08 05:22:51;;;;;;;18.53;15.13;;;4.30;99.90;;;;;;5093808;28;20206;-40
2020/12/08 05:25:18;;;;;;;18.30;14.40;;;4.20;99.90;;;;;;5093748;28;20585;-39
2020/12/08 05:27:45;;;;;;;18.23;15.33;;;4.20;99.90;;;;;;5093437;28;20221;-38
2020/12/08 05:30:13;;;;;;;16.00;14.30;;;4.10;99.90;;;;;;5095555;28;20222;-38
2020/12/08 05:32:41;;;;;;;20.77;16.27;;;4.10;99.90;;;;;;5095764;28;20213;-39
2020/12/08 05:35:09;;;;;;;17.80;15.87;;;4.10;99.90;;;;;;5094862;28;20632;-38
2020/12/08 05:37:37;;;;;;;15.67;14.17;;;4.00;99.90;;;;;;5075144;28;20209;-38
2020/12/08 05:40:06;;;;;;;16.67;14.23;;;3.90;99.90;;;;;;5096085;28;20280;-38
2020/12/08 05:42:34;;;;;;;18.27;16.33;;;3.90;99.90;;;;;;5093428;28;20700;-38
2020/12/08 05:45:01;;;;;;;17.40;15.07;;;3.90;99.90;;;;;;5093238;28;20316;-39
2020/12/08 05:47:29;;;;;;;16.77;15.10;;;3.80;99.90;;;;;;5093478;28;20228;-39
2020/12/08 05:50:01;;;;;;;18.10;14.43;;;3.80;99.90;;;;;;5093042;28;20196;-38
2020/12/08 05:52:29;;;;;;;21.80;15.67;;;3.80;99.90;;;;;;5093202;28;20225;-39
2020/12/08 05:55:13;;;;;;;19.10;15.40;;;3.80;99.90;;;;;;5093795;28;20198;-38
2020/12/08 05:57:40;;;;;;;20.00;16.10;;;4.00;99.90;;;;;;5093040;28;20253;-38
2020/12/08 06:00:19;;;;;;;20.07;15.13;;;4.10;99.90;;;;;;5092795;28;20202;-38
2020/12/08 06:02:46;;;;;;;18.57;15.47;;;4.00;99.90;;;;;;5092916;28;20543;-39
2020/12/08 06:05:24;;;;;;;20.33;15.00;;;4.00;99.90;;;;;;5092905;28;20222;-39
2020/12/08 06:07:50;;;;;;;18.37;15.67;;;4.00;99.90;;;;;;5092550;28;20296;-38
2020/12/08 06:10:17;;;;;;;25.97;15.50;;;4.00;99.90;;;;;;5092536;28;20198;-38
2020/12/08 06:12:43;;;;;;;20.47;16.77;;;4.20;99.90;;;;;;5074502;28;20205;-39
2020/12/08 06:15:21;;;;;;;19.23;15.37;;;4.10;99.90;;;;;;5094558;28;20676;-39
2020/12/08 06:17:49;;;;;;;20.73;16.77;;;4.10;99.90;;;;;;5092373;28;20243;-38
2020/12/08 06:20:16;;;;;;;19.43;15.93;;;4.10;99.90;;;;;;5092660;28;20729;-38
2020/12/08 06:22:53;;;;;;;18.92;15.30;;;4.00;99.90;;;;;;5092728;28;20197;-39
2020/12/08 06:25:20;;;;;;;20.67;17.27;;;3.90;99.90;;;;;;5092666;28;20239;-39
2020/12/08 06:27:47;;;;;;;20.93;16.67;;;3.90;99.90;;;;;;5092530;28;20564;-39
2020/12/08 06:30:13;;;;;;;20.23;16.17;;;4.00;99.90;;;;;;5092303;28;20289;-38
2020/12/08 06:32:42;;;;;;;20.83;15.87;;;3.90;99.90;;;;;;5092473;28;20201;-39
2020/12/08 06:35:12;;;;;;;19.70;15.27;;;4.00;99.90;;;;;;5092291;28;20205;-38
2020/12/08 06:37:45;;;;;;;21.43;15.80;;;4.00;99.90;;;;;;5092035;28;20198;-38
2020/12/08 06:40:13;;;;;;;20.77;16.03;;;4.10;99.90;;;;;;5092604;28;20230;-39
2020/12/08 06:42:40;;;;;;;17.73;14.63;;;4.10;99.90;;;;;;5091330;28;20297;-38
2020/12/08 06:45:14;;;;;;;22.27;17.83;;;4.10;99.90;;;;;;5092043;28;20282;-39
2020/12/08 06:47:42;;;;;;;20.97;17.33;;;4.20;99.90;;;;;;5091830;28;20206;-38
2020/12/08 06:50:25;;;;;;;18.60;16.27;;;4.30;99.90;;;;;;5092205;28;20219;-39
2020/12/08 06:52:53;;;;;;;19.43;16.53;;;4.50;99.90;;;;;;5092375;28;20194;-39
2020/12/08 06:55:19;;;;;;;20.03;17.47;;;4.50;99.90;;;;;;5092194;28;20557;-39
2020/12/08 06:57:46;;;;;;;23.03;17.37;;;4.40;99.90;;;;;;5091549;28;20285;-38
2020/12/08 07:00:13;;;;;;;21.23;17.03;;;4.40;99.90;;;;;;5088743;28;20285;-38
2020/12/08 07:02:49;;;;;;;19.63;17.53;;;4.30;99.90;;;;;;5091690;28;20263;-38
2020/12/08 07:05:21;;;;;;;21.23;16.47;;;4.30;99.90;;;;;;5091966;28;20225;-38
2020/12/08 07:07:48;;;;;;;22.00;17.50;;;4.40;99.90;;;;;;5091793;28;20230;-38
2020/12/08 07:10:16;;;;;;;21.53;17.97;;;4.60;99.90;;;;;;5091828;28;20194;-39
2020/12/08 07:12:44;;;;;;;20.17;17.03;;;4.50;99.90;;;;;;5092449;28;20197;-39
2020/12/08 07:15:18;;;;;;;21.20;17.33;;;4.40;99.90;;;;;;5092581;28;20619;-38
2020/12/08 07:17:52;;;;;;;20.17;18.00;;;4.40;99.90;;;;;;5092065;28;20198;-37
2020/12/08 07:20:19;;;;;;;21.77;17.83;;;4.30;99.90;;;;;;5092008;28;20194;-38
2020/12/08 07:22:47;;;;;;;23.50;18.17;;;4.30;99.90;;;;;;5091843;28;20206;-45
2020/12/08 07:25:14;;;;;;;23.67;18.23;;;4.30;99.90;;;;;;5091613;28;20214;-38
2020/12/08 07:27:43;;;;;;;21.33;16.73;;;4.20;99.90;;;;;;5091538;28;20206;-38
2020/12/08 07:30:11;;;;;;;23.40;18.20;;;4.30;99.90;;;;;;5092080;28;20236;-39
2020/12/08 07:32:38;;;;;;;19.63;17.33;;;4.30;99.90;;;;;;5091046;28;20221;-39
2020/12/08 07:35:05;;;;;;;20.00;16.90;;;4.30;99.90;;;;;;5091400;28;20190;-39
2020/12/08 07:37:38;;;;;;;21.10;17.07;;;4.30;99.90;;;;;;5090712;28;20201;-38
2020/12/08 07:40:11;;;;;;;20.23;18.07;;;4.20;99.90;;;;;;5091229;28;20202;-39
2020/12/08 07:42:45;;;;;;;19.57;16.50;;;4.30;99.90;;;;;;5089614;28;20218;-39
2020/12/08 07:45:12;;;;;;;20.20;16.70;;;4.30;99.90;;;;;;5089510;28;20225;-39
2020/12/08 07:47:38;;;;;;;23.77;19.33;;;4.30;99.90;;;;;;5090698;28;20371;-38
2020/12/08 07:50:05;;;;;;;21.02;16.42;;;4.30;99.90;;;;;;5091087;28;20206;-38
2020/12/08 07:52:32;;;;;;;21.33;17.77;;;4.30;99.90;;;;;;5091122;28;20214;-39
2020/12/08 07:54:59;;;;;;;21.20;17.20;;;4.30;99.90;;;;;;5090458;28;20202;-39
2020/12/08 07:57:25;;;;;;;20.17;17.80;;;4.30;99.90;;;;;;5090973;28;20202;-39
2020/12/08 07:59:52;;;;;;;23.43;17.03;;;4.20;99.90;;;;;;5090965;28;20649;-39
2020/12/08 08:02:18;;;;;;;22.07;17.63;;;4.20;99.90;;;;;;5091270;28;20252;-40
2020/12/08 08:04:45;;;;;;;22.97;17.27;;;4.10;99.90;;;;;;5091516;28;20232;-40
2020/12/08 08:07:12;;;;;;;23.60;19.03;;;4.10;99.90;;;;;;5090747;28;20225;-39
2020/12/08 08:09:39;;;;;;;22.43;17.57;;;4.20;99.90;;;;;;5090711;28;20218;-40
2020/12/08 08:12:06;;;;;;;23.20;18.30;;;4.30;99.90;;;;;;5091176;28;20229;-39
2020/12/08 08:14:33;;;;;;;20.83;17.07;;;4.40;99.90;;;;;;5091125;28;20186;-39
2020/12/08 08:16:59;;;;;;;21.37;17.27;;;4.40;99.90;;;;;;5090921;28;20293;-39
2020/12/08 08:19:26;;;;;;;22.80;17.40;;;4.40;99.90;;;;;;5090910;28;20579;-39
2020/12/08 08:21:53;;;;;;;21.87;17.30;;;4.30;99.90;;;;;;5090727;28;20290;-39
2020/12/08 08:24:19;;;;;;;20.30;16.98;;;4.30;99.90;;;;;;5090881;28;20299;-39
2020/12/08 08:26:46;;;;;;;21.13;18.80;;;4.30;99.90;;;;;;5089207;28;20275;-39
2020/12/08 08:29:13;;;;;;;23.20;18.67;;;4.30;99.90;;;;;;5090410;28;20205;-39
2020/12/08 08:31:39;;;;;;;20.77;17.57;;;4.40;99.90;;;;;;5090393;28;20238;-39
2020/12/08 08:34:06;;;;;;;20.70;17.90;;;4.30;99.90;;;;;;5092692;28;20860;-39
2020/12/08 08:36:33;;;;;;;23.97;18.43;;;4.30;99.90;;;;;;5090680;28;20542;-38
2020/12/08 08:38:59;;;;;;;24.97;19.90;;;4.40;99.90;;;;;;5090273;28;20201;-38
2020/12/08 08:41:26;;;;;;;20.20;17.83;;;4.60;99.90;;;;;;5090554;28;20209;-38
2020/12/08 08:43:52;;;;;;;23.73;19.40;;;4.70;99.90;;;;;;5090943;28;20194;-39
2020/12/08 08:46:20;;;;;;;25.67;18.53;;;5.10;99.90;;;;;;5090391;28;20225;-39
2020/12/08 08:48:46;;;;;;;20.13;16.50;;;5.50;99.90;;;;;;5090297;28;20215;-39
2020/12/08 08:51:13;;;;;;;19.53;16.23;;;5.80;99.90;;;;;;5090470;28;20659;-39
2020/12/08 08:53:39;;;;;;;19.87;17.60;;;6.20;99.90;;;;;;5090600;28;20266;-39
2020/12/08 08:56:06;;;;;;;19.33;17.13;;;6.60;99.90;;;;;;5090583;28;20504;-39
2020/12/08 08:58:32;;;;;;;18.60;16.50;;;6.40;99.90;;;;;;5090085;28;20259;-39
2020/12/08 09:00:59;;;;;;;20.47;17.90;;;6.10;99.90;;;;;;5090388;28;20222;-39
2020/12/08 09:03:26;;;;;;;19.30;17.13;;;5.90;99.90;;;;;;5090256;28;20236;-39
2020/12/08 09:05:53;;;;;;;20.40;18.23;;;6.00;99.90;;;;;;5091419;28;20241;-39
2020/12/08 09:08:20;;;;;;;18.97;16.97;;;6.20;99.90;;;;;;5092536;28;20225;-39
2020/12/08 09:10:46;;;;;;;18.60;16.60;;;6.10;99.90;;;;;;5075367;28;20264;-39
2020/12/08 09:13:13;;;;;;;20.35;17.23;;;5.80;99.90;;;;;;5073800;28;20256;-39
2020/12/08 09:15:39;;;;;;;18.17;16.00;;;5.60;99.90;;;;;;5073782;28;20653;-39
2020/12/08 09:18:06;;;;;;;25.27;17.47;;;5.40;99.90;;;;;;5073706;28;20207;-39
2020/12/08 09:20:34;;;;;;;18.50;16.53;;;5.30;99.90;;;;;;5073619;28;20202;-39
2020/12/08 09:23:00;;;;;;;19.23;17.08;;;5.30;99.90;;;;;;5073967;28;20194;-39
2020/12/08 09:25:28;;;;;;;22.57;17.67;;;5.30;99.90;;;;;;5073983;28;20715;-39
2020/12/08 09:27:54;;;;;;;20.20;16.97;;;5.50;99.90;;;;;;5073346;28;20380;-39
2020/12/08 09:30:21;;;;;;;20.00;17.90;;;5.90;99.90;;;;;;5073397;28;20189;-39
2020/12/08 09:32:48;;;;;;;20.50;17.88;;;6.00;99.90;;;;;;5073174;28;20202;-40
2020/12/08 09:35:15;;;;;;;20.43;18.00;;;5.90;99.90;;;;;;5073312;28;20828;-39
2020/12/08 09:37:43;;;;;;;20.73;16.95;;;5.90;99.90;;;;;;5073094;28;20628;-39
2020/12/08 09:40:11;;;;;;;22.33;18.63;;;5.80;99.90;;;;;;5073021;28;20198;-39
2020/12/08 09:42:41;;;;;;;21.70;19.00;;;5.80;99.90;;;;;;5072848;28;20253;-39
2020/12/08 09:45:08;;;;;;;20.30;18.13;;;5.80;99.90;;;;;;5072844;28;20621;-39
2020/12/08 09:47:35;;;;;;;19.27;17.27;;;5.90;99.90;;;;;;5072418;28;20665;-39
2020/12/08 09:50:02;;;;;;;20.03;17.87;;;6.00;99.90;;;;;;5072933;28;20616;-39
2020/12/08 09:52:30;;;;;;;18.58;16.05;;;6.20;99.90;;;;;;5073722;28;20245;-40
2020/12/08 09:54:58;;;;;;;20.27;15.90;;;6.20;99.90;;;;;;5073694;28;20213;-39
2020/12/08 09:57:25;;;;;;;18.37;16.27;;;6.50;99.90;;;;;;5072913;28;20213;-40
2020/12/08 09:59:51;;;;;;;20.47;18.27;;;6.70;99.90;;;;;;5072799;28;20248;-41
2020/12/08 10:02:18;;;;;;;19.05;17.05;;;6.70;99.90;;;;;;5072803;28;20283;-39
2020/12/08 10:04:45;;;;;;;18.98;16.80;;;6.70;99.90;;;;;;5072845;28;20198;-39
2020/12/08 10:07:14;;;;;;;20.60;18.47;;;7.00;99.90;;;;;;5072800;28;20202;-41
2020/12/08 10:09:42;;;;;;;18.65;16.67;;;7.80;99.90;;;;;;5072688;28;20206;-39
2020/12/08 10:12:09;;;;;;;18.25;15.20;;;8.80;99.90;;;;;;5072751;28;20242;-40
2020/12/08 10:14:36;;;;;;;16.35;14.25;;;9.50;99.90;;;;;;5072872;28;20203;-39
2020/12/08 10:17:03;;;;;;;15.23;13.63;;;9.80;99.90;;;;;;5072712;28;20222;-38
2020/12/08 10:19:30;;;;;;;16.55;14.60;;;10.10;99.90;;;;;;5073387;28;20541;-39
2020/12/08 10:21:56;;;;;;;14.20;12.90;;;10.70;99.90;;;;;;5073344;28;20274;-39
2020/12/08 10:24:24;;;;;;;12.18;11.02;;;11.30;99.90;;;;;;5072912;28;20255;-39
2020/12/08 10:26:50;;;;;;;13.35;12.00;;;11.50;99.90;;;;;;5074190;28;20292;-40
2020/12/08 10:29:18;;;;;;;14.98;13.48;;;11.00;99.90;;;;;;5072271;28;20202;-39
2020/12/08 10:31:45;;;;;;;14.02;12.63;;;10.20;99.90;;;;;;5072465;28;20227;-39
2020/12/08 10:34:12;;;;;;;14.50;13.05;;;9.80;99.90;;;;;;5072226;28;20233;-41
2020/12/08 10:36:39;;;;;;;14.32;12.93;;;9.90;99.90;;;;;;5071956;28;20186;-39
2020/12/08 10:39:06;;;;;;;14.55;13.05;;;9.90;99.90;;;;;;5072064;28;20665;-39
2020/12/08 10:41:33;;;;;;;13.23;11.95;;;9.90;99.90;;;;;;5072050;28;20210;-39
2020/12/08 10:44:00;;;;;;;12.77;11.50;;;9.70;99.90;;;;;;5071948;28;20201;-39
2020/12/08 10:46:28;;;;;;;15.15;12.80;;;9.70;99.90;;;;;;5071735;28;20224;-39
2020/12/08 10:48:54;;;;;;;17.60;13.73;;;9.60;99.90;;;;;;5071662;28;20203;-39
2020/12/08 10:51:21;;;;;;;13.52;12.15;;;9.80;99.90;;;;;;5053967;28;20222;-39
2020/12/08 10:53:48;;;;;;;15.30;12.93;;;9.90;99.90;;;;;;5071828;28;20210;-40
2020/12/08 10:56:18;;;;;;;13.52;12.15;;;10.10;99.90;;;;;;5071581;28;20184;-40
2020/12/08 10:58:45;;;;;;;13.85;12.57;;;10.40;99.90;;;;;;5071094;28;20201;-39
2020/12/08 11:01:17;;;;;;;16.55;12.20;;;10.60;99.90;;;;;;5079637;28;20208;-40
2020/12/08 11:03:45;;;;;;;14.45;12.95;;;11.00;99.90;;;;;;5081125;28;20212;-39
2020/12/08 11:06:12;;;;;;;13.80;12.50;;;11.00;99.90;;;;;;5080054;28;20235;-40
2020/12/08 11:08:39;;;;;;;15.75;13.98;;;11.10;99.90;;;;;;5081807;28;20224;-39
2020/12/08 11:11:06;;;;;;;14.82;13.30;;;11.10;99.90;;;;;;5081902;28;20245;-40
2020/12/08 11:13:33;;;;;;;16.60;14.70;;;11.30;99.90;;;;;;5080190;28;20217;-39
2020/12/08 11:16:00;;;;;;;15.75;14.13;;;11.50;99.90;;;;;;5081971;28;20363;-39
2020/12/08 11:18:26;;;;;;;17.95;13.93;;;11.70;99.90;;;;;;5080312;28;20201;-39
2020/12/08 11:20:54;;;;;;;16.45;14.35;;;11.80;99.90;;;;;;5079918;28;20703;-40
2020/12/08 11:23:21;;;;;;;15.90;14.27;;;12.20;99.90;;;;;;5079327;28;20256;-39
2020/12/08 11:25:47;;;;;;;14.95;13.57;;;12.30;99.90;;;;;;5081711;28;20443;-40
2020/12/08 11:28:14;;;;;;;16.23;14.52;;;12.30;99.90;;;;;;5079077;28;20205;-39
2020/12/08 11:30:41;;;;;;;17.27;15.68;;;12.40;99.90;;;;;;5063480;28;20222;-39
2020/12/08 11:33:08;;;;;;;15.50;14.00;;;12.20;99.90;;;;;;5081136;28;20281;-39
2020/12/08 11:35:37;;;;;;;16.63;14.85;;;11.80;99.90;;;;;;5079577;28;20200;-39
2020/12/08 11:38:05;;;;;;;18.02;15.88;;;11.40;99.90;;;;;;5063493;28;20195;-39
2020/12/08 11:40:32;;;;;;;16.00;14.27;;;11.10;99.90;;;;;;5086829;28;20565;-39
2020/12/08 11:42:59;;;;;;;17.35;15.57;;;10.90;99.90;;;;;;5083307;28;20251;-39
2020/12/08 11:45:26;;;;;;;16.40;14.70;;;10.60;99.90;;;;;;5085564;28;20221;-39
2020/12/08 11:47:52;;;;;;;18.35;16.45;;;10.10;99.90;;;;;;5081640;28;20222;-39
2020/12/08 11:50:20;;;;;;;18.20;15.60;;;10.00;99.90;;;;;;5080021;28;20193;-39
2020/12/08 11:52:46;;;;;;;18.95;17.00;;;10.00;99.90;;;;;;5080090;28;20195;-39
2020/12/08 11:55:14;;;;;;;18.55;16.65;;;10.10;99.90;;;;;;5081546;28;20208;-39
2020/12/08 11:57:41;;;;;;;18.30;16.58;;;10.10;99.90;;;;;;5079884;28;20299;-39
2020/12/08 12:00:08;;;;;;;20.40;18.35;;;10.10;99.90;;;;;;5082778;28;20287;-39
2020/12/08 12:02:44;;;;;;;19.48;17.48;;;10.20;99.90;;;;;;5080375;28;20207;-39
2020/12/08 12:05:12;;;;;;;20.23;18.23;;;10.40;99.90;;;;;;5079549;28;20692;-39
2020/12/08 12:07:39;;;;;;;18.08;16.30;;;10.50;99.90;;;;;;5079772;28;20198;-39
2020/12/08 12:10:06;;;;;;;19.33;17.30;;;10.50;99.90;;;;;;5080432;28;20247;-39
2020/12/08 12:12:34;;;;;;;17.88;16.08;;;10.70;99.90;;;;;;5084944;28;20232;-39
2020/12/08 12:15:01;;;;;;;20.95;16.90;;;10.80;99.90;;;;;;5078236;28;20230;-39
2020/12/08 12:17:27;;;;;;;20.17;18.10;;;11.00;99.90;;;;;;5086789;28;20201;-39
2020/12/08 12:19:54;;;;;;;18.65;16.85;;;11.00;99.90;;;;;;5091146;28;20571;-39
2020/12/08 12:22:23;;;;;;;19.00;16.98;;;10.80;99.90;;;;;;5090718;28;20714;-39
2020/12/08 12:24:49;;;;;;;20.38;18.23;;;10.50;99.90;;;;;;5088060;28;20279;-39
2020/12/08 12:27:16;;;;;;;21.63;17.63;;;10.00;99.90;;;;;;5081566;28;20220;-39
2020/12/08 12:29:44;;;;;;;21.13;19.00;;;10.00;99.90;;;;;;5063456;28;20205;-39
2020/12/08 12:32:10;;;;;;;17.85;16.05;;;10.10;99.90;;;;;;5079821;28;20307;-39
2020/12/08 12:34:37;;;;;;;17.75;15.93;;;10.30;99.90;;;;;;5080251;28;20220;-44
2020/12/08 12:37:04;;;;;;;19.83;16.92;;;10.40;99.90;;;;;;5081394;28;20188;-39
2020/12/08 12:39:31;;;;;;;18.85;16.95;;;10.40;99.90;;;;;;5091306;28;20224;-39